Terminal Aerodrome Forecast
Issued by NWS

Home | Current Version | Previous Version | Text Only | Print | Product List | Glossary On
Versions: 1 2 3 4 5 6 7 8 9 10 11 12 13 14 15 16
434
FTUS44 KLUB 092339
TAFCDS
TAF
KCDS 092339Z 1000/1024 16010KT P6SM SCT029 SCT250
     FM101700 19016KT P6SM FEW015 SCT250=

USA.gov is the U.S. government's official web portal to all federal, state and local government web resources and services.